Time;durP1;ratioP1;P1;durP2;ratioP2;P2;SDS_P1;SDS_P2;PMS_P1;PMS_P2;Temp;Humidity;BMP_temperature;BMP_pressure;BME280_temperature;BME280_humidity;BME280_pressure;Samples;Min_cycle;Max_cycle;Signal;HPM_P1;HPM_P2
2023/04/18 00:00:24;;;;;;;489.50;457.53;;;7.30;54.40;;;;;;5033660;28;20614;-74
2023/04/18 00:02:52;;;;;;;314.20;292.93;;;7.30;54.40;;;;;;5033389;28;20223;-73
2023/04/18 00:05:19;;;;;;;383.77;358.50;;;7.30;54.00;;;;;;5032948;28;20195;-73
2023/04/18 00:07:45;;;;;;;491.17;457.90;;;7.30;54.40;;;;;;5033704;28;20416;-73
2023/04/18 00:10:10;;;;;;;301.27;279.70;;;7.40;55.00;;;;;;5033484;28;20411;-74
2023/04/18 00:12:36;;;;;;;373.50;349.23;;;7.40;55.10;;;;;;5033196;28;20911;-73
2023/04/18 00:15:07;;;;;;;354.47;329.93;;;7.40;53.80;;;;;;5033236;28;20213;-73
2023/04/18 00:17:34;;;;;;;284.47;263.50;;;7.40;54.50;;;;;;5033478;28;20182;-73
2023/04/18 00:20:05;;;;;;;383.83;360.33;;;7.40;54.70;;;;;;5033166;28;20415;-73
2023/04/18 00:22:32;;;;;;;294.63;274.87;;;7.40;53.50;;;;;;5032801;28;20427;-73
2023/04/18 00:24:58;;;;;;;330.03;307.57;;;7.40;54.50;;;;;;5033043;28;20468;-73
2023/04/18 00:27:24;;;;;;;396.33;367.80;;;7.50;53.90;;;;;;5032931;28;20427;-73
2023/04/18 00:29:49;;;;;;;411.47;383.87;;;7.50;52.90;;;;;;5032966;28;20452;-74
2023/04/18 00:32:15;;;;;;;311.40;288.90;;;7.50;53.20;;;;;;5032701;28;20250;-73
2023/04/18 00:34:41;;;;;;;360.13;335.33;;;7.50;52.90;;;;;;5032872;28;20256;-73
2023/04/18 00:37:07;;;;;;;261.20;242.87;;;7.50;52.30;;;;;;5032829;28;20480;-73
2023/04/18 00:39:35;;;;;;;380.17;350.57;;;7.50;52.40;;;;;;5032734;28;20247;-73
2023/04/18 00:42:02;;;;;;;425.77;395.33;;;7.50;52.60;;;;;;5032629;28;20180;-73
2023/04/18 00:44:28;;;;;;;403.97;376.37;;;7.60;52.00;;;;;;5032570;28;20507;-73
2023/04/18 00:46:53;;;;;;;325.97;305.70;;;7.60;50.30;;;;;;5032628;28;20440;-73
2023/04/18 00:49:20;;;;;;;505.73;474.60;;;7.60;51.90;;;;;;5032586;28;20175;-73
2023/04/18 00:51:46;;;;;;;242.70;225.30;;;7.70;51.90;;;;;;5032344;28;20269;-73
2023/04/18 00:54:12;;;;;;;513.80;481.13;;;7.70;51.10;;;;;;5032517;28;20428;-73
2023/04/18 00:56:38;;;;;;;338.33;316.67;;;7.70;50.40;;;;;;5032557;28;21011;-73
2023/04/18 00:59:09;;;;;;;274.23;253.13;;;7.70;51.20;;;;;;5032568;28;20507;-73
2023/04/18 01:01:35;;;;;;;519.20;482.63;;;7.60;50.90;;;;;;5032181;28;20171;-73
2023/04/18 01:04:01;;;;;;;374.33;349.37;;;7.60;50.40;;;;;;5032251;28;20415;-73
2023/04/18 01:06:27;;;;;;;351.07;324.50;;;7.70;51.20;;;;;;5014407;28;20462;-74
2023/04/18 01:08:54;;;;;;;321.90;299.57;;;7.70;50.40;;;;;;5032287;28;20181;-73
2023/04/18 01:11:20;;;;;;;358.40;334.23;;;7.70;50.40;;;;;;5032171;28;20546;-73
2023/04/18 01:14:00;;;;;;;231.80;214.47;;;7.70;50.40;;;;;;5014224;28;20496;-73
2023/04/18 01:16:26;;;;;;;381.17;354.10;;;7.70;50.40;;;;;;5032001;28;20565;-73
2023/04/18 01:18:52;;;;;;;531.90;496.23;;;7.50;50.50;;;;;;5031236;28;20445;-74
2023/04/18 01:21:19;;;;;;;284.50;263.20;;;7.50;51.20;;;;;;5032198;28;20881;-73
2023/04/18 01:23:46;;;;;;;401.70;374.57;;;7.50;51.90;;;;;;5031821;28;20647;-73
2023/04/18 01:26:12;;;;;;;484.90;454.00;;;7.50;52.00;;;;;;5032116;28;20964;-73
2023/04/18 01:28:37;;;;;;;472.80;438.90;;;7.40;52.00;;;;;;5032066;28;20499;-73
2023/04/18 01:31:03;;;;;;;336.97;312.73;;;7.40;52.50;;;;;;5031994;28;20504;-73
2023/04/18 01:33:29;;;;;;;331.77;308.60;;;7.40;53.00;;;;;;5031428;28;20650;-73
2023/04/18 01:35:54;;;;;;;277.23;256.30;;;7.40;53.50;;;;;;5031653;28;20224;-73
2023/04/18 01:38:20;;;;;;;240.67;221.03;;;7.40;52.40;;;;;;5031717;28;20676;-73
2023/04/18 01:40:46;;;;;;;276.13;255.53;;;7.40;52.20;;;;;;5031754;28;20254;-73
2023/04/18 01:43:11;;;;;;;244.07;225.43;;;7.40;51.60;;;;;;5031393;28;20181;-73
2023/04/18 01:45:37;;;;;;;467.73;437.10;;;7.40;51.90;;;;;;5032436;28;20491;-73
2023/04/18 01:48:03;;;;;;;320.83;299.03;;;7.40;50.90;;;;;;5032175;28;20187;-73
2023/04/18 01:50:28;;;;;;;290.33;269.07;;;7.30;51.70;;;;;;5032049;28;20203;-73
2023/04/18 01:52:54;;;;;;;430.10;402.07;;;7.30;51.70;;;;;;5031342;28;20637;-73
2023/04/18 01:55:19;;;;;;;341.20;317.13;;;7.30;52.50;;;;;;5031481;28;20527;-73
2023/04/18 01:57:45;;;;;;;413.70;385.73;;;7.30;51.30;;;;;;5031486;28;20181;-73
2023/04/18 02:00:11;;;;;;;442.33;411.67;;;7.30;51.80;;;;;;5031419;28;20277;-73
2023/04/18 02:02:36;;;;;;;352.17;328.20;;;7.30;51.00;;;;;;5030979;28;20285;-73
2023/04/18 02:05:02;;;;;;;296.60;275.23;;;7.30;52.20;;;;;;5031488;28;20564;-73
2023/04/18 02:07:28;;;;;;;260.83;240.00;;;7.30;52.20;;;;;;5031359;28;20184;-73
2023/04/18 02:09:53;;;;;;;251.87;233.67;;;7.40;52.40;;;;;;5031380;28;20453;-73
2023/04/18 02:12:19;;;;;;;510.83;476.87;;;7.30;50.00;;;;;;5031057;28;20186;-73
2023/04/18 02:14:49;;;;;;;308.73;287.23;;;7.30;50.00;;;;;;5031243;28;20438;-73
2023/04/18 02:17:14;;;;;;;413.90;386.63;;;7.30;50.90;;;;;;5031098;28;20437;-73
2023/04/18 02:19:40;;;;;;;479.93;447.80;;;7.40;51.30;;;;;;5013389;28;20427;-73
2023/04/18 02:22:05;;;;;;;293.40;270.00;;;7.40;51.00;;;;;;5030869;28;20199;-72
2023/04/18 02:24:31;;;;;;;199.53;183.27;;;7.30;50.00;;;;;;5031288;28;20227;-73
2023/04/18 02:26:57;;;;;;;217.23;200.23;;;7.40;50.10;;;;;;5031242;28;20205;-72
2023/04/18 02:29:22;;;;;;;461.03;430.07;;;7.40;50.20;;;;;;5034900;28;20173;-72
2023/04/18 02:31:48;;;;;;;402.03;372.87;;;7.40;49.50;;;;;;5037382;28;20175;-72
2023/04/18 02:34:13;;;;;;;382.83;355.77;;;7.40;50.10;;;;;;5037622;28;20179;-73
2023/04/18 02:36:39;;;;;;;439.87;409.17;;;7.40;50.20;;;;;;5037398;28;20252;-72
2023/04/18 02:39:04;;;;;;;389.57;364.17;;;7.30;48.50;;;;;;5037869;28;20652;-72
2023/04/18 02:41:30;;;;;;;484.50;450.77;;;7.30;50.00;;;;;;5037445;28;20226;-72
2023/04/18 02:43:55;;;;;;;378.87;353.33;;;7.30;50.10;;;;;;5037474;28;20180;-72
2023/04/18 02:46:21;;;;;;;331.73;308.20;;;7.20;50.00;;;;;;5037410;28;20212;-72
2023/04/18 02:48:46;;;;;;;219.20;202.33;;;7.30;51.60;;;;;;5037610;28;20199;-72
2023/04/18 02:51:12;;;;;;;403.23;375.87;;;7.20;50.10;;;;;;5037600;28;20265;-72
2023/04/18 02:53:38;;;;;;;430.37;399.60;;;7.20;50.00;;;;;;5037369;28;20314;-73
2023/04/18 02:56:03;;;;;;;376.83;351.33;;;7.20;51.20;;;;;;5037537;28;20199;-72
2023/04/18 02:58:29;;;;;;;227.17;210.20;;;7.20;50.90;;;;;;5037365;28;20196;-73
2023/04/18 03:00:56;;;;;;;347.73;324.47;;;7.20;50.00;;;;;;5037532;28;20638;-73
2023/04/18 03:03:22;;;;;;;419.50;391.77;;;7.20;50.80;;;;;;5037165;28;20230;-73
2023/04/18 03:05:47;;;;;;;471.73;438.03;;;7.20;50.70;;;;;;5037198;28;20467;-73
2023/04/18 03:08:13;;;;;;;222.43;204.10;;;7.10;50.40;;;;;;5037294;28;20176;-73
2023/04/18 03:10:39;;;;;;;403.97;374.57;;;7.10;51.60;;;;;;5037191;28;20527;-73
2023/04/18 03:13:04;;;;;;;282.60;262.07;;;7.20;51.60;;;;;;5036912;28;20723;-72
2023/04/18 03:15:30;;;;;;;516.07;479.90;;;7.20;50.90;;;;;;5037068;28;20521;-72
2023/04/18 03:17:56;;;;;;;200.37;184.00;;;7.20;51.00;;;;;;5037186;28;20259;-72
2023/04/18 03:20:22;;;;;;;272.57;252.90;;;7.20;50.90;;;;;;5037291;28;20208;-72
2023/04/18 03:22:47;;;;;;;286.13;264.53;;;7.20;50.50;;;;;;5036962;28;20181;-71
2023/04/18 03:25:13;;;;;;;371.17;343.67;;;7.20;50.10;;;;;;5036986;28;20199;-71
2023/04/18 03:27:38;;;;;;;284.33;264.57;;;7.20;50.20;;;;;;5037196;28;20217;-72
2023/04/18 03:30:05;;;;;;;508.57;471.10;;;7.20;51.20;;;;;;5037007;28;20177;-72
2023/04/18 03:32:33;;;;;;;384.23;358.83;;;7.10;49.90;;;;;;5036573;28;20561;-71
2023/04/18 03:34:59;;;;;;;337.07;315.30;;;7.10;50.80;;;;;;5037047;28;20423;-72
2023/04/18 03:37:25;;;;;;;496.63;462.07;;;7.10;51.50;;;;;;5036896;28;20481;-72
2023/04/18 03:39:50;;;;;;;326.07;303.67;;;7.10;52.00;;;;;;5035967;28;20251;-72
2023/04/18 03:42:16;;;;;;;300.60;280.43;;;7.10;52.00;;;;;;5033406;28;20183;-72
2023/04/18 03:44:41;;;;;;;294.17;272.73;;;7.10;52.00;;;;;;5033927;28;20276;-72
2023/04/18 03:47:07;;;;;;;422.90;392.63;;;7.10;52.00;;;;;;5033796;28;20553;-72
2023/04/18 03:49:32;;;;;;;387.27;360.13;;;7.10;52.90;;;;;;5033859;28;20181;-72
2023/04/18 03:51:58;;;;;;;229.30;210.43;;;;;;;;;;5033638;28;20184;-72
2023/04/18 03:54:24;;;;;;;274.70;253.53;;;7.10;53.00;;;;;;5033799;28;20168;-72
2023/04/18 03:56:49;;;;;;;364.07;338.60;;;7.20;52.70;;;;;;5033667;28;20434;-72
2023/04/18 03:59:15;;;;;;;341.73;316.13;;;7.20;52.20;;;;;;5033670;28;20172;-72
2023/04/18 04:01:40;;;;;;;430.23;401.67;;;7.20;51.40;;;;;;5033344;28;20252;-72
2023/04/18 04:04:07;;;;;;;261.20;242.00;;;7.10;51.40;;;;;;5033586;28;20218;-72
2023/04/18 04:06:33;;;;;;;443.23;411.33;;;7.10;51.70;;;;;;5033351;28;20203;-72
2023/04/18 04:08:59;;;;;;;424.63;394.47;;;7.10;51.40;;;;;;5033465;28;20480;-72
2023/04/18 04:11:25;;;;;;;375.03;349.20;;;7.10;52.00;;;;;;5033978;28;20176;-73
2023/04/18 04:13:51;;;;;;;261.57;241.20;;;7.10;51.20;;;;;;5015450;28;20441;-72
2023/04/18 04:16:16;;;;;;;436.17;406.27;;;7.10;51.10;;;;;;5033399;28;20443;-72
2023/04/18 04:18:42;;;;;;;438.23;408.60;;;7.10;49.90;;;;;;5033442;28;20271;-72
2023/04/18 04:21:07;;;;;;;251.70;233.60;;;7.10;51.30;;;;;;5033230;28;20179;-72
2023/04/18 04:23:33;;;;;;;386.40;359.67;;;7.10;51.30;;;;;;5032843;28;20179;-72
2023/04/18 04:26:02;;;;;;;500.07;466.00;;;7.10;50.40;;;;;;5033005;28;20215;-72
2023/04/18 04:28:29;;;;;;;494.23;461.00;;;7.00;51.30;;;;;;5033067;28;20712;-72
2023/04/18 04:30:56;;;;;;;405.27;377.53;;;7.10;51.30;;;;;;5033162;28;20835;-72
2023/04/18 04:33:27;;;;;;;375.47;350.20;;;7.10;49.90;;;;;;5033959;28;20434;-71
2023/04/18 04:35:53;;;;;;;372.70;345.70;;;7.10;50.80;;;;;;5034325;28;20479;-74
2023/04/18 04:38:24;;;;;;;445.37;415.67;;;7.00;50.10;;;;;;5033900;28;20418;-74
2023/04/18 04:40:51;;;;;;;259.07;239.47;;;;;;;;;;5033032;28;20411;-74
2023/04/18 04:43:19;;;;;;;478.30;445.83;;;;;;;;;;5033092;28;20412;-74
2023/04/18 04:45:48;;;;;;;170.07;155.80;;;;;;;;;;5034930;28;20468;-74
2023/04/18 04:48:14;;;;;;;252.33;233.03;;;;;;;;;;5033523;28;20417;-73
2023/04/18 04:50:40;;;;;;;192.77;177.57;;;;;;;;;;5033125;28;20414;-73
2023/04/18 04:53:06;;;;;;;216.67;199.40;;;;;;;;;;5032622;28;20413;-73
2023/04/18 04:55:33;;;;;;;424.33;396.90;;;;;;;;;;5014864;28;20493;-73
2023/04/18 04:57:59;;;;;;;325.73;303.07;;;;;;;;;;5032779;28;20423;-73
2023/04/18 05:00:25;;;;;;;450.10;420.03;;;;;;;;;;5032945;28;20783;-74
2023/04/18 05:02:52;;;;;;;211.73;196.03;;;;;;;;;;5032376;28;20427;-74
2023/04/18 05:05:18;;;;;;;251.73;234.53;;;;;;;;;;5032382;28;20463;-74
2023/04/18 05:07:44;;;;;;;302.17;280.43;;;;;;;;;;5032429;28;20506;-73
2023/04/18 05:10:10;;;;;;;388.77;362.27;;;;;;;;;;5032361;28;20481;-73
2023/04/18 05:12:36;;;;;;;313.53;290.67;;;;;;;;;;5032117;28;20414;-74
2023/04/18 05:15:02;;;;;;;429.57;401.33;;;;;;;;;;5032346;28;20418;-74
2023/04/18 05:17:28;;;;;;;229.77;211.10;;;;;;;;;;5032120;28;20488;-73
2023/04/18 05:19:54;;;;;;;397.47;372.90;;;;;;;;;;5032053;28;20843;-71
2023/04/18 05:22:20;;;;;;;308.40;287.43;;;;;;;;;;5031895;28;20420;-72
2023/04/18 05:24:46;;;;;;;401.70;373.00;;;;;;;;;;5032263;28;20455;-72
2023/04/18 05:27:13;;;;;;;297.53;277.87;;;;;;;;;;5032391;28;20526;-71
2023/04/18 05:29:39;;;;;;;396.80;369.17;;;7.10;50.60;;;;;;5032304;28;20490;-70
2023/04/18 05:32:05;;;;;;;423.23;392.90;;;7.20;50.40;;;;;;5032097;28;20422;-71
2023/04/18 05:34:31;;;;;;;356.33;329.90;;;7.30;48.60;;;;;;5032063;28;20756;-70
2023/04/18 05:36:57;;;;;;;244.23;227.50;;;7.40;49.30;;;;;;5018082;28;20482;-71
2023/04/18 05:39:23;;;;;;;343.17;320.67;;;7.50;48.60;;;;;;5033935;28;20434;-71
2023/04/18 05:41:48;;;;;;;349.23;326.27;;;7.50;46.70;;;;;;5045319;28;20194;-71
2023/04/18 05:44:14;;;;;;;400.67;373.00;;;7.40;46.70;;;;;;5012411;28;20211;-71
2023/04/18 05:46:41;;;;;;;311.63;289.77;;;7.50;46.40;;;;;;5011998;28;20289;-70
2023/04/18 05:49:06;;;;;;;292.20;271.57;;;7.50;46.20;;;;;;5026161;28;20426;-71
2023/04/18 05:51:32;;;;;;;442.90;412.67;;;7.50;46.30;;;;;;5031611;28;20411;-71
2023/04/18 05:53:57;;;;;;;237.17;220.20;;;7.50;46.00;;;;;;5035309;28;20179;-71
2023/04/18 05:56:23;;;;;;;406.33;379.33;;;7.50;47.10;;;;;;5032002;28;20204;-71
2023/04/18 05:58:50;;;;;;;381.30;355.20;;;7.50;44.40;;;;;;5013597;28;20193;-71
2023/04/18 06:01:19;;;;;;;299.77;279.57;;;7.50;44.90;;;;;;5031885;28;20176;-71
2023/04/18 06:03:44;;;;;;;432.30;402.37;;;7.50;45.30;;;;;;5030660;28;20412;-71
2023/04/18 06:06:10;;;;;;;417.70;388.80;;;7.40;44.30;;;;;;5048383;28;20473;-71
2023/04/18 06:08:37;;;;;;;255.73;236.87;;;7.50;46.00;;;;;;5051165;28;20174;-70
2023/04/18 06:11:03;;;;;;;361.23;335.87;;;7.50;45.90;;;;;;5051378;28;20829;-71
2023/04/18 06:13:28;;;;;;;450.63;419.23;;;7.50;44.30;;;;;;5051133;28;20489;-71
2023/04/18 06:15:54;;;;;;;488.37;455.80;;;7.50;44.40;;;;;;5051412;28;20207;-71
2023/04/18 06:18:20;;;;;;;323.83;300.53;;;7.60;44.40;;;;;;5051565;28;20171;-71
2023/04/18 06:20:45;;;;;;;309.63;287.30;;;7.60;44.70;;;;;;5041104;28;20184;-70
2023/04/18 06:23:11;;;;;;;378.13;349.80;;;7.70;44.00;;;;;;5011854;28;20185;-70
2023/04/18 06:25:36;;;;;;;352.93;326.97;;;7.80;43.40;;;;;;5024445;28;20214;-71
2023/04/18 06:28:02;;;;;;;416.83;387.43;;;7.80;43.30;;;;;;5032040;28;20207;-70
2023/04/18 06:30:27;;;;;;;451.30;419.93;;;7.80;42.40;;;;;;5031728;28;20227;-72
2023/04/18 06:32:53;;;;;;;192.57;177.07;;;7.90;41.80;;;;;;5031418;28;20252;-70
2023/04/18 06:35:19;;;;;;;371.77;345.27;;;7.90;41.80;;;;;;5031260;28;20184;-71
2023/04/18 06:37:45;;;;;;;372.60;348.63;;;8.10;40.70;;;;;;5031551;28;20255;-71
2023/04/18 06:40:11;;;;;;;561.70;520.27;;;8.30;38.70;;;;;;5031427;28;20176;-71
2023/04/18 06:42:37;;;;;;;327.93;303.77;;;8.30;37.70;;;;;;5031017;28;20421;-70
2023/04/18 06:45:03;;;;;;;400.13;371.50;;;8.40;37.10;;;;;;5037448;28;20543;-71
2023/04/18 06:47:29;;;;;;;374.70;349.43;;;8.50;35.90;;;;;;5049499;28;20409;-71
2023/04/18 06:49:54;;;;;;;304.30;282.33;;;8.40;35.80;;;;;;5031234;28;20401;-72
2023/04/18 06:52:20;;;;;;;350.60;326.00;;;8.30;36.60;;;;;;5031038;28;20417;-71
2023/04/18 06:54:45;;;;;;;467.30;435.30;;;8.40;36.80;;;;;;5031184;28;20189;-71
2023/04/18 06:57:11;;;;;;;232.53;213.97;;;8.50;35.20;;;;;;5031354;28;20202;-71
2023/04/18 06:59:37;;;;;;;266.33;247.27;;;8.50;35.30;;;;;;5031602;28;20277;-70
2023/04/18 07:02:02;;;;;;;382.93;355.93;;;8.60;35.00;;;;;;5031016;28;20641;-71
2023/04/18 07:04:28;;;;;;;344.13;320.33;;;8.80;34.00;;;;;;5030976;28;20415;-70
2023/04/18 07:06:53;;;;;;;282.07;261.83;;;9.00;32.80;;;;;;5031318;28;20206;-71
2023/04/18 07:09:19;;;;;;;368.97;342.93;;;9.00;31.40;;;;;;5034692;28;20663;-71
2023/04/18 07:11:45;;;;;;;334.57;310.93;;;9.10;31.40;;;;;;5051007;28;20174;-71
2023/04/18 07:14:10;;;;;;;346.57;323.17;;;9.10;31.30;;;;;;5051126;28;20185;-71
2023/04/18 07:16:37;;;;;;;301.97;280.30;;;9.00;30.70;;;;;;5034795;28;20241;-71
2023/04/18 07:19:04;;;;;;;310.03;288.07;;;8.90;31.80;;;;;;5049861;28;20461;-72
2023/04/18 07:21:29;;;;;;;345.20;319.43;;;8.90;32.00;;;;;;5039030;28;20982;-71
2023/04/18 07:23:55;;;;;;;183.97;168.33;;;8.90;32.30;;;;;;5030267;28;20464;-71
2023/04/18 07:26:21;;;;;;;294.43;272.73;;;9.00;33.30;;;;;;5031108;28;20461;-72
2023/04/18 07:28:47;;;;;;;472.97;440.33;;;9.10;31.80;;;;;;5043868;28;20212;-72
2023/04/18 07:31:13;;;;;;;217.07;199.53;;;9.30;31.30;;;;;;5049651;28;20213;-71
2023/04/18 07:33:38;;;;;;;499.93;463.70;;;9.60;29.20;;;;;;5050205;28;20470;-72
2023/04/18 07:36:04;;;;;;;394.57;367.27;;;9.70;28.20;;;;;;5051068;28;20210;-68
2023/04/18 07:38:31;;;;;;;391.37;361.50;;;9.80;28.50;;;;;;5053758;28;20171;-71
2023/04/18 07:40:58;;;;;;;456.03;424.83;;;9.80;27.30;;;;;;5053876;28;20440;-71
2023/04/18 07:43:25;;;;;;;441.67;412.90;;;9.90;27.40;;;;;;5053477;28;20504;-71
2023/04/18 07:45:51;;;;;;;489.83;457.83;;;10.10;25.00;;;;;;5052302;28;20463;-72
2023/04/18 07:48:17;;;;;;;330.30;306.70;;;10.00;24.80;;;;;;5053848;28;20408;-72
2023/04/18 07:50:42;;;;;;;335.77;312.70;;;9.80;27.20;;;;;;5053591;28;20528;-71
2023/04/18 07:53:08;;;;;;;274.07;254.40;;;9.70;27.30;;;;;;5035521;28;20178;-71
2023/04/18 07:55:34;;;;;;;403.73;375.53;;;9.60;28.10;;;;;;5053604;28;20205;-72
2023/04/18 07:57:59;;;;;;;302.53;281.07;;;9.60;27.90;;;;;;5053393;28;20198;-71
2023/04/18 08:00:25;;;;;;;287.47;265.20;;;9.30;28.20;;;;;;5053576;28;20421;-70
2023/04/18 08:02:51;;;;;;;142.23;128.57;;;9.30;29.60;;;;;;5053130;28;20245;-70
2023/04/18 08:05:18;;;;;;;333.87;310.83;;;9.20;29.50;;;;;;5053074;28;20206;-70
2023/04/18 08:07:44;;;;;;;454.90;424.33;;;9.20;29.50;;;;;;5053347;28;20175;-70
2023/04/18 08:10:10;;;;;;;256.33;238.20;;;9.40;30.00;;;;;;5053549;28;20833;-71
2023/04/18 08:12:36;;;;;;;465.87;430.63;;;9.40;29.90;;;;;;5053420;28;20173;-71
2023/04/18 08:15:02;;;;;;;309.80;287.47;;;9.50;28.70;;;;;;5053245;28;20446;-70
2023/04/18 08:17:28;;;;;;;473.43;441.87;;;9.20;29.20;;;;;;5053354;28;20173;-71
2023/04/18 08:19:53;;;;;;;232.90;215.27;;;9.20;30.00;;;;;;5053264;28;20961;-70
2023/04/18 08:22:19;;;;;;;290.60;268.53;;;9.20;31.20;;;;;;5052892;28;20201;-70
2023/04/18 08:24:44;;;;;;;463.67;432.80;;;9.30;30.50;;;;;;5053246;28;20229;-70
2023/04/18 08:27:10;;;;;;;256.57;237.63;;;9.40;29.90;;;;;;5052646;28;20216;-72
2023/04/18 08:29:35;;;;;;;374.13;348.47;;;9.60;29.70;;;;;;5053079;28;20173;-72
2023/04/18 08:32:01;;;;;;;408.63;381.13;;;9.80;28.10;;;;;;5052898;28;20190;-74
2023/04/18 08:34:28;;;;;;;411.47;381.97;;;10.10;27.10;;;;;;5053092;28;20182;-73
2023/04/18 08:36:53;;;;;;;550.50;511.17;;;10.00;25.50;;;;;;5053174;28;20320;-72
2023/04/18 08:39:19;;;;;;;230.87;213.63;;;10.00;25.70;;;;;;5053286;28;20405;-72
2023/04/18 08:41:52;;;;;;;462.03;420.03;;;10.10;26.80;;;;;;5052656;28;20175;-73
2023/04/18 08:44:18;;;;;;;353.77;329.13;;;10.50;26.10;;;;;;5052977;28;20304;-73
2023/04/18 08:46:43;;;;;;;467.50;436.03;;;10.50;25.40;;;;;;5052889;28;20552;-72
2023/04/18 08:49:09;;;;;;;451.50;422.37;;;10.60;23.30;;;;;;5052727;28;20265;-72
2023/04/18 08:51:38;;;;;;;342.23;319.20;;;10.50;24.80;;;;;;5052533;28;20245;-72
2023/04/18 08:54:05;;;;;;;539.80;503.40;;;10.40;24.50;;;;;;5046455;28;20186;-72
2023/04/18 08:56:30;;;;;;;228.07;211.20;;;10.60;25.10;;;;;;5049057;28;20811;-73
2023/04/18 08:58:59;;;;;;;453.93;422.77;;;11.00;24.20;;;;;;5048504;28;20853;-72
2023/04/18 09:01:57;;;;;;;364.10;338.87;;;11.00;22.10;;;;;;5039524;28;20203;-72
2023/04/18 09:04:34;;;;;;;255.13;235.43;;;10.90;22.80;;;;;;5028856;28;20467;-72
2023/04/18 09:07:01;;;;;;;436.33;407.03;;;11.10;22.60;;;;;;5029001;28;20447;-72
2023/04/18 09:09:26;;;;;;;388.63;362.43;;;11.10;22.10;;;;;;5032408;28;20937;-70
2023/04/18 09:12:06;;;;;;;206.07;189.37;;;11.00;22.80;;;;;;5032287;28;20802;-71
2023/04/18 09:14:35;;;;;;;327.17;304.00;;;10.90;23.20;;;;;;5032401;28;20653;-70
2023/04/18 09:17:01;;;;;;;409.27;382.43;;;10.80;23.10;;;;;;5032294;28;20430;-70
2023/04/18 09:19:27;;;;;;;392.07;366.07;;;10.90;23.20;;;;;;5032574;28;20737;-71
2023/04/18 09:21:58;;;;;;;443.40;412.60;;;11.00;22.80;;;;;;5032241;28;20607;-71
2023/04/18 09:24:25;;;;;;;285.07;264.53;;;11.20;21.80;;;;;;5032686;28;20438;-71
2023/04/18 09:26:55;;;;;;;431.77;403.10;;;11.50;22.40;;;;;;5032213;28;20517;-70
2023/04/18 09:29:45;;;;;;;628.03;586.40;;;11.90;21.30;;;;;;5031933;28;20414;-70
2023/04/18 09:32:23;;;;;;;498.93;462.83;;;11.90;19.70;;;;;;5031642;28;20451;-70
2023/04/18 09:35:00;;;;;;;419.53;392.43;;;11.90;19.70;;;;;;5032515;28;20412;-71
2023/04/18 09:37:27;;;;;;;413.90;385.47;;;12.00;19.70;;;;;;5031780;28;20451;-71
2023/04/18 09:39:54;;;;;;;342.07;318.77;;;12.00;19.20;;;;;;5031340;28;20462;-70
2023/04/18 09:42:21;;;;;;;390.40;365.13;;;12.00;19.60;;;;;;5031654;28;20502;-70
2023/04/18 09:45:04;;;;;;;422.37;394.47;;;12.40;19.10;;;;;;5032287;28;20963;-71
2023/04/18 09:47:33;;;;;;;177.37;162.23;;;12.60;17.80;;;;;;5031920;28;20418;-70
2023/04/18 09:50:05;;;;;;;146.60;132.93;;;12.60;18.50;;;;;;5031817;28;20961;-70
2023/04/18 09:52:34;;;;;;;441.93;412.87;;;12.90;18.30;;;;;;5031619;28;20420;-71
2023/04/18 09:55:02;;;;;;;344.63;321.57;;;13.30;16.30;;;;;;5031765;28;20547;-70
2023/04/18 09:57:29;;;;;;;407.07;379.97;;;13.40;15.70;;;;;;5031616;28;20910;-69
2023/04/18 10:00:26;;;;;;;476.33;446.03;;;13.40;15.50;;;;;;5032254;28;20508;-69
2023/04/18 10:03:09;;;;;;;349.53;326.47;;;13.40;15.40;;;;;;5031582;28;20420;-69
2023/04/18 10:05:37;;;;;;;352.23;328.37;;;14.00;15.40;;;;;;5031628;28;20514;-70
2023/04/18 10:08:03;;;;;;;555.67;520.00;;;14.00;12.40;;;;;;5031565;28;20418;-70
2023/04/18 10:10:28;;;;;;;396.63;372.37;;;14.20;9.50;;;;;;5031438;28;20406;-70
2023/04/18 10:12:56;;;;;;;414.13;389.97;;;;;;;;;;5031369;28;20207;-71
2023/04/18 10:15:24;;;;;;;699.53;645.67;;;14.60;9.20;;;;;;5031258;28;20258;-71
2023/04/18 10:17:53;;;;;;;454.77;425.73;;;;;;;;;;5031261;28;20422;-70
2023/04/18 10:20:20;;;;;;;692.63;645.27;;;;;;;;;;5031295;28;20436;-70
2023/04/18 10:22:46;;;;;;;471.33;440.87;;;;;;;;;;5030706;28;20545;-71
2023/04/18 10:25:12;;;;;;;283.77;265.20;;;15.10;6.90;;;;;;5031134;28;20816;-71
2023/04/18 10:27:47;;;;;;;506.67;475.37;;;15.20;6.50;;;;;;5031290;28;20428;-71
2023/04/18 10:30:13;;;;;;;467.70;438.07;;;15.50;7.00;;;;;;5031326;28;20257;-71
2023/04/18 10:32:39;;;;;;;664.67;619.30;;;;;;;;;;5030964;28;20800;-70
2023/04/18 10:35:06;;;;;;;405.27;379.47;;;15.80;6.00;;;;;;5030979;28;20483;-70
2023/04/18 10:37:32;;;;;;;504.83;472.37;;;;;;;;;;5031304;28;20473;-70
2023/04/18 10:40:05;;;;;;;391.27;365.63;;;;;;;;;;5031007;28;20521;-70
2023/04/18 10:42:56;;;;;;;367.43;344.83;;;15.30;7.50;;;;;;5030812;28;20418;-70
2023/04/18 10:45:23;;;;;;;691.83;642.20;;;15.40;5.80;;;;;;5017415;28;20501;-70
2023/04/18 10:47:49;;;;;;;468.73;439.70;;;;;;;;;;5031028;28;20429;-70
2023/04/18 10:50:15;;;;;;;419.50;392.80;;;;;;;;;;5032808;28;20500;-71
2023/04/18 10:52:42;;;;;;;382.33;357.27;;;;;;;;;;5034707;28;20832;-71
2023/04/18 10:55:24;;;;;;;461.30;434.07;;;15.20;5.40;;;;;;5034700;28;20414;-69
2023/04/18 10:57:50;;;;;;;327.03;305.13;;;14.60;7.60;;;;;;5034799;28;20414;-71
2023/04/18 11:00:20;;;;;;;365.90;343.13;;;;;;;;;;5034857;28;20551;-71
2023/04/18 11:02:50;;;;;;;421.73;395.37;;;14.20;7.00;;;;;;5034788;28;20418;-71
2023/04/18 11:05:25;;;;;;;381.43;356.43;;;14.30;7.90;;;;;;5034722;28;20905;-71
2023/04/18 11:07:51;;;;;;;490.10;458.40;;;14.80;7.60;;;;;;5034835;28;20417;-71
2023/04/18 11:10:23;;;;;;;340.13;318.77;;;14.80;5.70;;;;;;5034663;28;20414;-71
2023/04/18 11:12:49;;;;;;;408.70;383.70;;;14.80;6.10;;;;;;5034677;28;20420;-71
2023/04/18 11:15:20;;;;;;;221.93;206.87;;;14.80;6.60;;;;;;5034542;28;20418;-71
2023/04/18 11:17:54;;;;;;;317.93;296.40;;;14.70;6.70;;;;;;5034726;28;20432;-71
2023/04/18 11:20:20;;;;;;;530.57;496.27;;;14.80;6.30;;;;;;5034751;28;20730;-71
2023/04/18 11:22:53;;;;;;;566.93;524.57;;;14.90;6.50;;;;;;5034361;28;20413;-71
2023/04/18 11:25:23;;;;;;;449.93;422.43;;;14.90;4.90;;;;;;5034202;28;20246;-71
2023/04/18 11:27:55;;;;;;;826.57;750.87;;;14.80;6.10;;;;;;5034301;28;20505;-71
2023/04/18 11:30:21;;;;;;;501.63;469.70;;;14.60;5.90;;;;;;5016424;28;20445;-72
2023/04/18 11:32:47;;;;;;;424.63;398.97;;;14.90;5.80;;;;;;5033852;28;20448;-71
2023/04/18 11:35:14;;;;;;;423.67;396.93;;;14.80;5.60;;;;;;5033830;28;20194;-73
2023/04/18 11:37:41;;;;;;;379.37;355.23;;;14.60;5.30;;;;;;5034486;28;20597;-73
2023/04/18 11:40:10;;;;;;;487.27;455.57;;;14.40;6.00;;;;;;5016244;28;20478;-71
2023/04/18 11:42:38;;;;;;;379.50;355.60;;;14.40;6.00;;;;;;5033856;28;20421;-71
2023/04/18 11:45:08;;;;;;;470.70;441.93;;;14.40;5.90;;;;;;5033868;28;20947;-71
2023/04/18 11:47:34;;;;;;;354.47;330.90;;;14.60;7.20;;;;;;5034140;28;20457;-70
2023/04/18 11:50:00;;;;;;;390.67;364.80;;;15.30;5.40;;;;;;5033868;28;20774;-71
2023/04/18 11:52:29;;;;;;;561.20;526.77;;;15.30;4.30;;;;;;5033989;28;20624;-71
2023/04/18 11:54:55;;;;;;;402.13;376.53;;;15.30;4.30;;;;;;5034068;28;20492;-71
2023/04/18 11:57:29;;;;;;;358.97;337.93;;;15.00;4.50;;;;;;5033985;28;20434;-71
2023/04/18 11:59:57;;;;;;;485.27;453.83;;;15.40;4.40;;;;;;5034035;28;20420;-71
2023/04/18 12:02:37;;;;;;;543.53;506.80;;;15.50;4.50;;;;;;5032626;28;20912;-71
2023/04/18 12:05:03;;;;;;;592.40;553.20;;;;;;;;;;5033532;28;20465;-71
2023/04/18 12:07:40;;;;;;;471.37;442.47;;;15.60;2.90;;;;;;5033730;28;20410;-71
2023/04/18 12:10:08;;;;;;;497.40;466.00;;;15.60;3.90;;;;;;5033664;28;20492;-71
2023/04/18 12:12:34;;;;;;;363.90;340.53;;;15.70;2.70;;;;;;5033353;28;20437;-70
2023/04/18 12:15:05;;;;;;;429.07;403.07;;;15.70;3.40;;;;;;5033573;28;20422;-70
2023/04/18 12:17:31;;;;;;;397.27;371.87;;;15.80;2.50;;;;;;5033431;28;20475;-71
2023/04/18 12:20:00;;;;;;;374.80;350.57;;;15.70;2.90;;;;;;5033358;28;20426;-71
2023/04/18 12:22:43;;;;;;;588.40;549.23;;;15.80;2.80;;;;;;5033109;28;20262;-71
2023/04/18 12:25:20;;;;;;;349.07;326.53;;;15.70;2.90;;;;;;5033118;28;20449;-71